sensor_id;sensor_type;location;lat;lon;timestamp;pressure;altitude;pressure_sealevel;temperature
19568;BMP280;9930;49.240;8.548;2023-05-07T00:01:36;100357.88;;;21.11
19568;BMP280;9930;49.240;8.548;2023-05-07T00:04:06;100371.69;;;21.15
19568;BMP280;9930;49.240;8.548;2023-05-07T00:06:32;100382.91;;;21.17
19568;BMP280;9930;49.240;8.548;2023-05-07T00:09:01;100379.47;;;21.15
19568;BMP280;9930;49.240;8.548;2023-05-07T00:11:30;100374.28;;;21.12
19568;BMP280;9930;49.240;8.548;2023-05-07T00:13:57;100363.06;;;21.08
19568;BMP280;9930;49.240;8.548;2023-05-07T00:16:25;100363.94;;;21.09
19568;BMP280;9930;49.240;8.548;2023-05-07T00:18:56;100358.75;;;21.09
19568;BMP280;9930;49.240;8.548;2023-05-07T00:21:21;100356.22;;;21.01
19568;BMP280;9930;49.240;8.548;2023-05-07T00:23:47;100360.50;;;21.03
19568;BMP280;9930;49.240;8.548;2023-05-07T00:26:15;100340.72;;;20.90
19568;BMP280;9930;49.240;8.548;2023-05-07T00:28:43;100352.78;;;20.93
19568;BMP280;9930;49.240;8.548;2023-05-07T00:31:09;100357.97;;;20.94
19568;BMP280;9930;49.240;8.548;2023-05-07T00:33:40;100357.97;;;20.93
19568;BMP280;9930;49.240;8.548;2023-05-07T00:36:08;100365.75;;;20.91
19568;BMP280;9930;49.240;8.548;2023-05-07T00:38:37;100362.31;;;20.89
19568;BMP280;9930;49.240;8.548;2023-05-07T00:41:02;100359.75;;;20.83
19568;BMP280;9930;49.240;8.548;2023-05-07T00:43:28;100358.88;;;20.84
19568;BMP280;9930;49.240;8.548;2023-05-07T00:45:57;100346.88;;;20.77
19568;BMP280;9930;49.240;8.548;2023-05-07T00:48:23;100362.41;;;20.80
19568;BMP280;9930;49.240;8.548;2023-05-07T00:50:53;100359.75;;;20.82
19568;BMP280;9930;49.240;8.548;2023-05-07T00:53:19;100356.31;;;20.81
19568;BMP280;9930;49.240;8.548;2023-05-07T00:55:46;100341.69;;;20.74
19568;BMP280;9930;49.240;8.548;2023-05-07T00:58:14;100343.44;;;20.74
19568;BMP280;9930;49.240;8.548;2023-05-07T01:00:45;100352.91;;;20.76
19568;BMP280;9930;49.240;8.548;2023-05-07T01:03:11;100344.31;;;20.68
19568;BMP280;9930;49.240;8.548;2023-05-07T01:05:38;100347.75;;;20.72
19568;BMP280;9930;49.240;8.548;2023-05-07T01:08:10;100335.69;;;20.64
19568;BMP280;9930;49.240;8.548;2023-05-07T01:10:39;100340.88;;;20.66
19568;BMP280;9930;49.240;8.548;2023-05-07T01:13:09;100338.31;;;20.60
19568;BMP280;9930;49.240;8.548;2023-05-07T01:15:37;100353.84;;;20.63
19568;BMP280;9930;49.240;8.548;2023-05-07T01:18:07;100354.72;;;20.62
19568;BMP280;9930;49.240;8.548;2023-05-07T01:20:37;100342.66;;;20.53
19568;BMP280;9930;49.240;8.548;2023-05-07T01:23:07;100344.38;;;20.54
19568;BMP280;9930;49.240;8.548;2023-05-07T01:25:33;100346.97;;;20.56
19568;BMP280;9930;49.240;8.548;2023-05-07T01:28:01;100345.25;;;20.55
19568;BMP280;9930;49.240;8.548;2023-05-07T01:30:29;100346.97;;;20.54
19568;BMP280;9930;49.240;8.548;2023-05-07T01:33:10;100333.19;;;20.48
19568;BMP280;9930;49.240;8.548;2023-05-07T01:35:43;100340.94;;;20.49
19568;BMP280;9930;49.240;8.548;2023-05-07T01:38:12;100339.22;;;20.45
19568;BMP280;9930;49.240;8.548;2023-05-07T01:40:38;100340.09;;;20.44
19568;BMP280;9930;49.240;8.548;2023-05-07T01:43:08;100327.13;;;20.38
19568;BMP280;9930;49.240;8.548;2023-05-07T01:45:40;100340.97;;;20.40
19568;BMP280;9930;49.240;8.548;2023-05-07T01:48:11;100339.22;;;20.37
19568;BMP280;9930;49.240;8.548;2023-05-07T01:50:38;100342.72;;;20.30
19568;BMP280;9930;49.240;8.548;2023-05-07T01:53:07;100328.91;;;20.24
19568;BMP280;9930;49.240;8.548;2023-05-07T01:55:36;100343.59;;;20.25
19568;BMP280;9930;49.240;8.548;2023-05-07T01:58:06;100341.00;;;20.22
19568;BMP280;9930;49.240;8.548;2023-05-07T02:00:32;100327.22;;;20.11
19568;BMP280;9930;49.240;8.548;2023-05-07T02:03:00;100342.75;;;20.15
19568;BMP280;9930;49.240;8.548;2023-05-07T02:05:26;100349.66;;;20.12
19568;BMP280;9930;49.240;8.548;2023-05-07T02:07:58;100345.34;;;20.09
19568;BMP280;9930;49.240;8.548;2023-05-07T02:10:24;100342.78;;;20.06
19568;BMP280;9930;49.240;8.548;2023-05-07T02:12:50;100326.41;;;19.95
19568;BMP280;9930;49.240;8.548;2023-05-07T02:15:18;100349.69;;;19.99
19568;BMP280;9930;49.240;8.548;2023-05-07T02:18:08;100342.81;;;19.92
19568;BMP280;9930;49.240;8.548;2023-05-07T02:20:35;100329.00;;;19.81
19568;BMP280;9930;49.240;8.548;2023-05-07T02:23:03;100339.34;;;19.86
19568;BMP280;9930;49.240;8.548;2023-05-07T02:25:30;100346.25;;;19.85
19568;BMP280;9930;49.240;8.548;2023-05-07T02:27:56;100340.22;;;19.80
19568;BMP280;9930;49.240;8.548;2023-05-07T02:30:24;100349.72;;;19.81
19568;BMP280;9930;49.240;8.548;2023-05-07T02:32:50;100355.75;;;19.79
19568;BMP280;9930;49.240;8.548;2023-05-07T02:35:18;100351.44;;;19.75
19568;BMP280;9930;49.240;8.548;2023-05-07T02:37:46;100360.94;;;19.76
19568;BMP280;9930;49.240;8.548;2023-05-07T02:40:14;100345.41;;;19.66
19568;BMP280;9930;49.240;8.548;2023-05-07T02:42:42;100353.19;;;19.69
19568;BMP280;9930;49.240;8.548;2023-05-07T02:45:09;100357.50;;;19.67
19568;BMP280;9930;49.240;8.548;2023-05-07T02:47:36;100357.50;;;19.64
19568;BMP280;9930;49.240;8.548;2023-05-07T02:50:02;100353.19;;;19.62
19568;BMP280;9930;49.240;8.548;2023-05-07T02:52:30;100352.31;;;19.54
19568;BMP280;9930;49.240;8.548;2023-05-07T02:54:57;100348.88;;;19.53
19568;BMP280;9930;49.240;8.548;2023-05-07T02:57:23;100346.28;;;19.52
19568;BMP280;9930;49.240;8.548;2023-05-07T02:59:50;100337.63;;;19.47
19568;BMP280;9930;49.240;8.548;2023-05-07T03:02:18;100343.66;;;19.46
19568;BMP280;9930;49.240;8.548;2023-05-07T03:04:44;100347.97;;;19.50
19568;BMP280;9930;49.240;8.548;2023-05-07T03:07:12;100341.94;;;19.43
19568;BMP280;9930;49.240;8.548;2023-05-07T03:09:40;100327.28;;;19.40
19568;BMP280;9930;49.240;8.548;2023-05-07T03:12:06;100336.75;;;19.46
19568;BMP280;9930;49.240;8.548;2023-05-07T03:14:32;100331.59;;;19.43
19568;BMP280;9930;49.240;8.548;2023-05-07T03:16:57;100328.13;;;19.41
19568;BMP280;9930;49.240;8.548;2023-05-07T03:19:23;100331.59;;;19.40
19568;BMP280;9930;49.240;8.548;2023-05-07T03:21:49;100318.66;;;19.32
19568;BMP280;9930;49.240;8.548;2023-05-07T03:24:17;100327.28;;;19.39
19568;BMP280;9930;49.240;8.548;2023-05-07T03:26:42;100313.47;;;19.31
19568;BMP280;9930;49.240;8.548;2023-05-07T03:29:08;100318.66;;;19.29
19568;BMP280;9930;49.240;8.548;2023-05-07T03:31:40;100311.75;;;19.31
19568;BMP280;9930;49.240;8.548;2023-05-07T03:34:06;100313.47;;;19.31
19568;BMP280;9930;49.240;8.548;2023-05-07T03:36:36;100313.47;;;19.23
19568;BMP280;9930;49.240;8.548;2023-05-07T03:39:04;100312.59;;;19.20
19568;BMP280;9930;49.240;8.548;2023-05-07T03:41:32;100320.38;;;19.21
19568;BMP280;9930;49.240;8.548;2023-05-07T03:43:58;100332.44;;;19.24
19568;BMP280;9930;49.240;8.548;2023-05-07T03:46:26;100323.81;;;19.22
19568;BMP280;9930;49.240;8.548;2023-05-07T03:48:53;100329.00;;;19.22
19568;BMP280;9930;49.240;8.548;2023-05-07T03:51:21;100328.97;;;19.17
19568;BMP280;9930;49.240;8.548;2023-05-07T03:53:49;100326.38;;;19.16
19568;BMP280;9930;49.240;8.548;2023-05-07T03:56:20;100336.75;;;19.22
19568;BMP280;9930;49.240;8.548;2023-05-07T03:58:47;100328.13;;;19.18
19568;BMP280;9930;49.240;8.548;2023-05-07T04:01:15;100335.88;;;19.15
19568;BMP280;9930;49.240;8.548;2023-05-07T04:03:43;100346.22;;;19.15
19568;BMP280;9930;49.240;8.548;2023-05-07T04:06:11;100362.59;;;19.22
19568;BMP280;9930;49.240;8.548;2023-05-07T04:08:39;100360.88;;;19.22
19568;BMP280;9930;49.240;8.548;2023-05-07T04:11:09;100359.16;;;19.23
19568;BMP280;9930;49.240;8.548;2023-05-07T04:13:36;100368.63;;;19.25
19568;BMP280;9930;49.240;8.548;2023-05-07T04:16:04;100353.97;;;19.20
19568;BMP280;9930;49.240;8.548;2023-05-07T04:18:32;100366.06;;;19.27
19568;BMP280;9930;49.240;8.548;2023-05-07T04:20:58;100361.75;;;19.27
19568;BMP280;9930;49.240;8.548;2023-05-07T04:23:26;100365.19;;;19.29
19568;BMP280;9930;49.240;8.548;2023-05-07T04:25:51;100365.19;;;19.31
19568;BMP280;9930;49.240;8.548;2023-05-07T04:28:18;100365.19;;;19.32
19568;BMP280;9930;49.240;8.548;2023-05-07T04:30:48;100367.78;;;19.35
19568;BMP280;9930;49.240;8.548;2023-05-07T04:33:16;100373.81;;;19.37
19568;BMP280;9930;49.240;8.548;2023-05-07T04:35:44;100379.00;;;19.42
19568;BMP280;9930;49.240;8.548;2023-05-07T04:38:12;100375.56;;;19.46
19568;BMP280;9930;49.240;8.548;2023-05-07T04:40:41;100363.50;;;19.42
19568;BMP280;9930;49.240;8.548;2023-05-07T04:43:09;100367.84;;;19.52
19568;BMP280;9930;49.240;8.548;2023-05-07T04:45:38;100358.31;;;19.51
19568;BMP280;9930;49.240;8.548;2023-05-07T04:48:08;100366.13;;;19.56
19568;BMP280;9930;49.240;8.548;2023-05-07T04:50:35;100360.06;;;19.63
19568;BMP280;9930;49.240;8.548;2023-05-07T04:53:03;100371.28;;;19.69
19568;BMP280;9930;49.240;8.548;2023-05-07T04:55:31;100364.38;;;19.67
19568;BMP280;9930;49.240;8.548;2023-05-07T04:57:59;100373.00;;;19.73
19568;BMP280;9930;49.240;8.548;2023-05-07T05:00:29;100367.84;;;19.67
19568;BMP280;9930;49.240;8.548;2023-05-07T05:02:59;100374.75;;;19.70
19568;BMP280;9930;49.240;8.548;2023-05-07T05:05:25;100371.28;;;19.72
19568;BMP280;9930;49.240;8.548;2023-05-07T05:07:51;100379.91;;;19.73
19568;BMP280;9930;49.240;8.548;2023-05-07T05:10:17;100385.09;;;19.84
19568;BMP280;9930;49.240;8.548;2023-05-07T05:12:43;100387.66;;;19.88
19568;BMP280;9930;49.240;8.548;2023-05-07T05:15:11;100375.59;;;19.87
19568;BMP280;9930;49.240;8.548;2023-05-07T05:17:39;100391.09;;;19.99
19568;BMP280;9930;49.240;8.548;2023-05-07T05:20:08;100378.16;;;19.98
19568;BMP280;9930;49.240;8.548;2023-05-07T05:22:38;100392.81;;;20.10
19568;BMP280;9930;49.240;8.548;2023-05-07T05:25:09;100383.34;;;20.09
19568;BMP280;9930;49.240;8.548;2023-05-07T05:27:38;100394.53;;;20.18
19568;BMP280;9930;49.240;8.548;2023-05-07T05:30:06;100383.31;;;20.22
19568;BMP280;9930;49.240;8.548;2023-05-07T05:32:36;100397.09;;;20.36
19568;BMP280;9930;49.240;8.548;2023-05-07T05:35:02;100387.59;;;20.35
19568;BMP280;9930;49.240;8.548;2023-05-07T05:37:28;100409.19;;;20.47
19568;BMP280;9930;49.240;8.548;2023-05-07T05:39:55;100385.00;;;20.48
19568;BMP280;9930;49.240;8.548;2023-05-07T05:42:21;100399.63;;;20.61
19568;BMP280;9930;49.240;8.548;2023-05-07T05:44:47;100396.13;;;20.73
19568;BMP280;9930;49.240;8.548;2023-05-07T05:47:13;100393.44;;;20.89
19568;BMP280;9930;49.240;8.548;2023-05-07T05:49:38;100396.78;;;21.10
19568;BMP280;9930;49.240;8.548;2023-05-07T05:52:05;100386.34;;;21.23
19568;BMP280;9930;49.240;8.548;2023-05-07T05:54:38;100399.16;;;21.49
19568;BMP280;9930;49.240;8.548;2023-05-07T05:57:06;100372.34;;;21.49
19568;BMP280;9930;49.240;8.548;2023-05-07T05:59:40;100399.84;;;21.73
19568;BMP280;9930;49.240;8.548;2023-05-07T06:02:06;100396.34;;;21.77
19568;BMP280;9930;49.240;8.548;2023-05-07T06:04:34;100407.47;;;21.91
19568;BMP280;9930;49.240;8.548;2023-05-07T06:07:01;100407.41;;;21.97
19568;BMP280;9930;49.240;8.548;2023-05-07T06:09:27;100415.16;;;22.06
19568;BMP280;9930;49.240;8.548;2023-05-07T06:11:55;100409.88;;;22.14
19568;BMP280;9930;49.240;8.548;2023-05-07T06:14:21;100409.84;;;22.18
19568;BMP280;9930;49.240;8.548;2023-05-07T06:16:46;100394.28;;;22.17
19568;BMP280;9930;49.240;8.548;2023-05-07T06:19:17;100406.28;;;22.27
19568;BMP280;9930;49.240;8.548;2023-05-07T06:21:48;100406.31;;;22.25
19568;BMP280;9930;49.240;8.548;2023-05-07T06:24:14;100397.63;;;22.26
19568;BMP280;9930;49.240;8.548;2023-05-07T06:26:44;100403.56;;;22.41
19568;BMP280;9930;49.240;8.548;2023-05-07T06:29:15;100408.66;;;22.50
19568;BMP280;9930;49.240;8.548;2023-05-07T06:31:40;100394.81;;;22.48
19568;BMP280;9930;49.240;8.548;2023-05-07T06:34:08;100399.91;;;22.57
19568;BMP280;9930;49.240;8.548;2023-05-07T06:36:35;100390.41;;;22.54
19568;BMP280;9930;49.240;8.548;2023-05-07T06:39:03;100392.13;;;22.54
19568;BMP280;9930;49.240;8.548;2023-05-07T06:41:31;100400.75;;;22.57
19568;BMP280;9930;49.240;8.548;2023-05-07T06:44:02;100403.34;;;22.59
19568;BMP280;9930;49.240;8.548;2023-05-07T06:46:30;100407.66;;;22.60
19568;BMP280;9930;49.240;8.548;2023-05-07T06:48:56;100403.31;;;22.60
19568;BMP280;9930;49.240;8.548;2023-05-07T06:51:24;100395.47;;;22.65
19568;BMP280;9930;49.240;8.548;2023-05-07T06:53:50;100398.00;;;22.70
19568;BMP280;9930;49.240;8.548;2023-05-07T06:56:16;100392.75;;;22.74
19568;BMP280;9930;49.240;8.548;2023-05-07T06:58:46;100401.38;;;22.81
19568;BMP280;9930;49.240;8.548;2023-05-07T07:01:14;100399.56;;;22.87
19568;BMP280;9930;49.240;8.548;2023-05-07T07:03:40;100378.75;;;22.87
19568;BMP280;9930;49.240;8.548;2023-05-07T07:06:08;100383.00;;;22.94
19568;BMP280;9930;49.240;8.548;2023-05-07T07:08:36;100383.63;;;23.12
19568;BMP280;9930;49.240;8.548;2023-05-07T07:11:05;100395.47;;;23.33
19568;BMP280;9930;49.240;8.548;2023-05-07T07:13:31;100389.94;;;23.55
19568;BMP280;9930;49.240;8.548;2023-05-07T07:15:57;100398.25;;;23.77
19568;BMP280;9930;49.240;8.548;2023-05-07T07:18:22;100399.69;;;23.95
19568;BMP280;9930;49.240;8.548;2023-05-07T07:20:50;100402.03;;;24.09
19568;BMP280;9930;49.240;8.548;2023-05-07T07:23:16;100393.28;;;24.13
19568;BMP280;9930;49.240;8.548;2023-05-07T07:25:42;100399.13;;;24.26
19568;BMP280;9930;49.240;8.548;2023-05-07T07:28:08;100401.66;;;24.32
19568;BMP280;9930;49.240;8.548;2023-05-07T07:30:35;100402.16;;;24.50
19568;BMP280;9930;49.240;8.548;2023-05-07T07:33:01;100409.53;;;24.73
19568;BMP280;9930;49.240;8.548;2023-05-07T07:35:29;100416.00;;;24.97
19568;BMP280;9930;49.240;8.548;2023-05-07T07:37:58;100401.72;;;25.13
19568;BMP280;9930;49.240;8.548;2023-05-07T07:40:26;100399.78;;;25.23
19568;BMP280;9930;49.240;8.548;2023-05-07T07:42:53;100406.31;;;25.41
19568;BMP280;9930;49.240;8.548;2023-05-07T07:45:21;100406.13;;;25.48
19568;BMP280;9930;49.240;8.548;2023-05-07T07:47:49;100415.63;;;25.53
19568;BMP280;9930;49.240;8.548;2023-05-07T07:50:15;100406.13;;;25.48
19568;BMP280;9930;49.240;8.548;2023-05-07T07:52:43;100412.81;;;25.60
19568;BMP280;9930;49.240;8.548;2023-05-07T07:55:09;100403.88;;;25.72
19568;BMP280;9930;49.240;8.548;2023-05-07T07:57:36;100397.47;;;25.84
19568;BMP280;9930;49.240;8.548;2023-05-07T08:00:03;100408.19;;;26.05
19568;BMP280;9930;49.240;8.548;2023-05-07T08:02:29;100399.22;;;26.15
19568;BMP280;9930;49.240;8.548;2023-05-07T08:04:55;100415.22;;;26.37
19568;BMP280;9930;49.240;8.548;2023-05-07T08:07:23;100416.69;;;26.48
19568;BMP280;9930;49.240;8.548;2023-05-07T08:09:49;100415.66;;;26.53
19568;BMP280;9930;49.240;8.548;2023-05-07T08:12:15;100424.41;;;26.52
19568;BMP280;9930;49.240;8.548;2023-05-07T08:14:43;100415.91;;;26.44
19568;BMP280;9930;49.240;8.548;2023-05-07T08:18:05;100412.38;;;26.45
19568;BMP280;9930;49.240;8.548;2023-05-07T08:20:35;100400.28;;;26.41
19568;BMP280;9930;49.240;8.548;2023-05-07T08:23:10;100399.41;;;26.42
19568;BMP280;9930;49.240;8.548;2023-05-07T08:25:36;100404.75;;;26.37
19568;BMP280;9930;49.240;8.548;2023-05-07T08:28:03;100410.31;;;26.24
19568;BMP280;9930;49.240;8.548;2023-05-07T08:30:36;100414.94;;;26.14
19568;BMP280;9930;49.240;8.548;2023-05-07T08:33:04;100410.00;;;26.03
19568;BMP280;9930;49.240;8.548;2023-05-07T08:35:31;100420.28;;;26.09
19568;BMP280;9930;49.240;8.548;2023-05-07T08:37:57;100414.22;;;26.09
19568;BMP280;9930;49.240;8.548;2023-05-07T08:40:28;100423.72;;;26.11
19568;BMP280;9930;49.240;8.548;2023-05-07T08:42:56;100423.47;;;26.21
19568;BMP280;9930;49.240;8.548;2023-05-07T08:45:23;100422.53;;;26.23
19568;BMP280;9930;49.240;8.548;2023-05-07T08:47:59;100406.16;;;26.17
19568;BMP280;9930;49.240;8.548;2023-05-07T08:50:30;100407.84;;;26.19
19568;BMP280;9930;49.240;8.548;2023-05-07T08:52:58;100420.56;;;26.31
19568;BMP280;9930;49.240;8.548;2023-05-07T08:55:25;100410.06;;;26.34
19568;BMP280;9930;49.240;8.548;2023-05-07T08:57:51;100417.53;;;26.48
19568;BMP280;9930;49.240;8.548;2023-05-07T09:00:20;100413.81;;;26.57
19568;BMP280;9930;49.240;8.548;2023-05-07T09:02:46;100405.88;;;26.60
19568;BMP280;9930;49.240;8.548;2023-05-07T09:05:12;100409.16;;;26.66
19568;BMP280;9930;49.240;8.548;2023-05-07T09:07:38;100409.00;;;26.72
19568;BMP280;9930;49.240;8.548;2023-05-07T09:10:07;100411.69;;;26.69
19568;BMP280;9930;49.240;8.548;2023-05-07T09:12:39;100414.03;;;26.78
19568;BMP280;9930;49.240;8.548;2023-05-07T09:15:06;100399.66;;;26.93
19568;BMP280;9930;49.240;8.548;2023-05-07T09:17:34;100390.38;;;27.13
19568;BMP280;9930;49.240;8.548;2023-05-07T09:20:06;100393.13;;;27.36
19568;BMP280;9930;49.240;8.548;2023-05-07T09:22:38;100387.41;;;27.51
19568;BMP280;9930;49.240;8.548;2023-05-07T09:25:08;100385.22;;;27.65
19568;BMP280;9930;49.240;8.548;2023-05-07T09:27:36;100387.47;;;27.76
19568;BMP280;9930;49.240;8.548;2023-05-07T09:30:06;100393.22;;;27.87
19568;BMP280;9930;49.240;8.548;2023-05-07T09:32:36;100380.00;;;27.90
19568;BMP280;9930;49.240;8.548;2023-05-07T09:35:16;100392.56;;;28.05
19568;BMP280;9930;49.240;8.548;2023-05-07T09:37:43;100385.41;;;28.11
19568;BMP280;9930;49.240;8.548;2023-05-07T09:40:23;100399.06;;;28.20
19568;BMP280;9930;49.240;8.548;2023-05-07T09:42:50;100398.19;;;28.20
19568;BMP280;9930;49.240;8.548;2023-05-07T09:45:28;100381.59;;;28.19
19568;BMP280;9930;49.240;8.548;2023-05-07T09:47:58;100378.22;;;28.16
19568;BMP280;9930;49.240;8.548;2023-05-07T09:50:36;100385.88;;;28.23
19568;BMP280;9930;49.240;8.548;2023-05-07T09:53:05;100371.03;;;28.22
19568;BMP280;9930;49.240;8.548;2023-05-07T09:55:33;100374.50;;;28.23
19568;BMP280;9930;49.240;8.548;2023-05-07T09:58:01;100381.41;;;28.25
19568;BMP280;9930;49.240;8.548;2023-05-07T10:00:31;100373.91;;;28.15
19568;BMP280;9930;49.240;8.548;2023-05-07T10:03:02;100379.03;;;28.18
19568;BMP280;9930;49.240;8.548;2023-05-07T10:05:29;100373.91;;;28.15
19568;BMP280;9930;49.240;8.548;2023-05-07T10:07:55;100365.00;;;28.19
19568;BMP280;9930;49.240;8.548;2023-05-07T10:10:25;100361.34;;;28.24
19568;BMP280;9930;49.240;8.548;2023-05-07T10:12:52;100355.81;;;28.32
19568;BMP280;9930;49.240;8.548;2023-05-07T10:15:26;100354.63;;;28.41
19568;BMP280;9930;49.240;8.548;2023-05-07T10:17:56;100352.56;;;28.49
19568;BMP280;9930;49.240;8.548;2023-05-07T10:20:23;100359.25;;;28.57
19568;BMP280;9930;49.240;8.548;2023-05-07T10:22:55;100359.69;;;28.68
19568;BMP280;9930;49.240;8.548;2023-05-07T10:25:31;100353.47;;;28.71
19568;BMP280;9930;49.240;8.548;2023-05-07T10:28:03;100362.16;;;28.73
19568;BMP280;9930;49.240;8.548;2023-05-07T10:33:39;100363.69;;;28.79
19568;BMP280;9930;49.240;8.548;2023-05-07T10:36:06;100345.53;;;28.73
19568;BMP280;9930;49.240;8.548;2023-05-07T10:38:37;100360.06;;;28.83
19568;BMP280;9930;49.240;8.548;2023-05-07T10:41:13;100360.00;;;28.84
19568;BMP280;9930;49.240;8.548;2023-05-07T10:43:42;100362.44;;;28.89
19568;BMP280;9930;49.240;8.548;2023-05-07T10:46:17;100349.88;;;28.97
19568;BMP280;9930;49.240;8.548;2023-05-07T10:51:39;100342.19;;;29.14
19568;BMP280;9930;49.240;8.548;2023-05-07T10:56:41;100345.53;;;29.40
19568;BMP280;9930;49.240;8.548;2023-05-07T11:02:03;100342.09;;;29.59
19568;BMP280;9930;49.240;8.548;2023-05-07T11:04:33;100340.31;;;29.60
19568;BMP280;9930;49.240;8.548;2023-05-07T11:15:13;100340.72;;;29.91
19568;BMP280;9930;49.240;8.548;2023-05-07T11:17:59;100327.50;;;29.93
19568;BMP280;9930;49.240;8.548;2023-05-07T11:20:57;100329.41;;;29.89
19568;BMP280;9930;49.240;8.548;2023-05-07T11:26:10;100326.00;;;29.67
19568;BMP280;9930;49.240;8.548;2023-05-07T11:28:48;100313.19;;;29.59
19568;BMP280;9930;49.240;8.548;2023-05-07T11:31:20;100328.97;;;29.59
19568;BMP280;9930;49.240;8.548;2023-05-07T11:33:48;100312.66;;;29.51
19568;BMP280;9930;49.240;8.548;2023-05-07T11:36:16;100319.56;;;29.54
19568;BMP280;9930;49.240;8.548;2023-05-07T11:38:42;100326.66;;;29.52
19568;BMP280;9930;49.240;8.548;2023-05-07T11:41:10;100310.28;;;29.45
19568;BMP280;9930;49.240;8.548;2023-05-07T11:43:57;100305.19;;;29.41
19568;BMP280;9930;49.240;8.548;2023-05-07T11:46:28;100311.28;;;29.43
19568;BMP280;9930;49.240;8.548;2023-05-07T11:48:58;100312.13;;;29.43
19568;BMP280;9930;49.240;8.548;2023-05-07T11:51:26;100299.47;;;29.31
19568;BMP280;9930;49.240;8.548;2023-05-07T11:53:54;100322.31;;;29.29
19568;BMP280;9930;49.240;8.548;2023-05-07T11:56:20;100306.88;;;29.21
19568;BMP280;9930;49.240;8.548;2023-05-07T11:58:48;100297.78;;;29.08
19568;BMP280;9930;49.240;8.548;2023-05-07T12:01:17;100310.25;;;29.03
19568;BMP280;9930;49.240;8.548;2023-05-07T12:03:45;100294.91;;;28.92
19568;BMP280;9930;49.240;8.548;2023-05-07T12:06:15;100307.06;;;28.95
19568;BMP280;9930;49.240;8.548;2023-05-07T12:08:42;100301.28;;;28.87
19568;BMP280;9930;49.240;8.548;2023-05-07T12:11:13;100302.31;;;28.83
19568;BMP280;9930;49.240;8.548;2023-05-07T12:13:44;100306.78;;;28.79
19568;BMP280;9930;49.240;8.548;2023-05-07T12:16:10;100302.41;;;28.80
19568;BMP280;9930;49.240;8.548;2023-05-07T12:18:39;100318.00;;;28.84
19568;BMP280;9930;49.240;8.548;2023-05-07T12:21:07;100295.31;;;28.82
19568;BMP280;9930;49.240;8.548;2023-05-07T12:23:43;100297.00;;;28.84
19568;BMP280;9930;49.240;8.548;2023-05-07T12:26:13;100298.34;;;28.94
19568;BMP280;9930;49.240;8.548;2023-05-07T12:28:39;100301.69;;;28.98
19568;BMP280;9930;49.240;8.548;2023-05-07T12:31:11;100292.22;;;28.94
19568;BMP280;9930;49.240;8.548;2023-05-07T12:33:40;100296.56;;;28.95
19568;BMP280;9930;49.240;8.548;2023-05-07T12:36:08;100295.47;;;29.00
19568;BMP280;9930;49.240;8.548;2023-05-07T12:38:39;100299.75;;;29.03
19568;BMP280;9930;49.240;8.548;2023-05-07T12:41:11;100301.56;;;29.01
19568;BMP280;9930;49.240;8.548;2023-05-07T12:43:46;100279.16;;;28.92
19568;BMP280;9930;49.240;8.548;2023-05-07T12:46:15;100288.56;;;28.98
19568;BMP280;9930;49.240;8.548;2023-05-07T12:48:48;100291.88;;;29.03
19568;BMP280;9930;49.240;8.548;2023-05-07T12:51:25;100269.78;;;28.87
19568;BMP280;9930;49.240;8.548;2023-05-07T12:53:58;100291.13;;;28.99
19568;BMP280;9930;49.240;8.548;2023-05-07T12:56:23;100267.88;;;28.90
19568;BMP280;9930;49.240;8.548;2023-05-07T12:58:49;100276.22;;;29.00
19568;BMP280;9930;49.240;8.548;2023-05-07T13:01:15;100280.44;;;29.04
19568;BMP280;9930;49.240;8.548;2023-05-07T13:03:50;100292.16;;;29.17
19568;BMP280;9930;49.240;8.548;2023-05-07T13:06:19;100287.75;;;29.18
19568;BMP280;9930;49.240;8.548;2023-05-07T13:08:44;100280.66;;;29.20
19568;BMP280;9930;49.240;8.548;2023-05-07T13:11:13;100288.22;;;29.27
19568;BMP280;9930;49.240;8.548;2023-05-07T13:13:40;100271.69;;;29.25
19568;BMP280;9930;49.240;8.548;2023-05-07T13:16:09;100277.47;;;29.33
19568;BMP280;9930;49.240;8.548;2023-05-07T13:18:37;100268.78;;;29.31
19568;BMP280;9930;49.240;8.548;2023-05-07T13:21:06;100269.31;;;29.40
19568;BMP280;9930;49.240;8.548;2023-05-07T13:23:33;100274.34;;;29.46
19568;BMP280;9930;49.240;8.548;2023-05-07T13:26:03;100271.47;;;29.52
19568;BMP280;9930;49.240;8.548;2023-05-07T13:28:30;100262.84;;;29.48
19568;BMP280;9930;49.240;8.548;2023-05-07T13:30:56;100272.50;;;29.48
19568;BMP280;9930;49.240;8.548;2023-05-07T13:33:22;100271.59;;;29.49
19568;BMP280;9930;49.240;8.548;2023-05-07T13:35:50;100270.59;;;29.51
19568;BMP280;9930;49.240;8.548;2023-05-07T13:38:15;100264.88;;;29.42
19568;BMP280;9930;49.240;8.548;2023-05-07T13:40:41;100267.50;;;29.42
19568;BMP280;9930;49.240;8.548;2023-05-07T13:43:07;100265.06;;;29.37
19568;BMP280;9930;49.240;8.548;2023-05-07T13:45:33;100251.53;;;29.26
19568;BMP280;9930;49.240;8.548;2023-05-07T13:48:00;100253.75;;;29.15
19568;BMP280;9930;49.240;8.548;2023-05-07T13:50:28;100257.47;;;29.09
19568;BMP280;9930;49.240;8.548;2023-05-07T13:52:56;100278.41;;;29.11
19568;BMP280;9930;49.240;8.548;2023-05-07T13:55:29;100285.81;;;29.01
19568;BMP280;9930;49.240;8.548;2023-05-07T13:58:00;100290.72;;;28.88
19568;BMP280;9930;49.240;8.548;2023-05-07T14:00:27;100306.28;;;28.69
19568;BMP280;9930;49.240;8.548;2023-05-07T14:02:54;100304.66;;;28.44
19568;BMP280;9930;49.240;8.548;2023-05-07T14:05:21;100327.78;;;28.09
19568;BMP280;9930;49.240;8.548;2023-05-07T14:07:50;100330.88;;;27.70
19568;BMP280;9930;49.240;8.548;2023-05-07T14:10:18;100351.16;;;27.37
19568;BMP280;9930;49.240;8.548;2023-05-07T14:12:47;100365.34;;;27.04
19568;BMP280;9930;49.240;8.548;2023-05-07T14:15:15;100379.56;;;26.64
19568;BMP280;9930;49.240;8.548;2023-05-07T14:17:42;100387.50;;;26.30
19568;BMP280;9930;49.240;8.548;2023-05-07T14:20:09;100379.88;;;25.90
19568;BMP280;9930;49.240;8.548;2023-05-07T14:22:39;100376.22;;;25.62
19568;BMP280;9930;49.240;8.548;2023-05-07T14:25:08;100381.25;;;25.34
19568;BMP280;9930;49.240;8.548;2023-05-07T14:27:42;100382.66;;;25.10
19568;BMP280;9930;49.240;8.548;2023-05-07T14:30:08;100383.94;;;24.91
19568;BMP280;9930;49.240;8.548;2023-05-07T14:32:35;100403.44;;;24.73
19568;BMP280;9930;49.240;8.548;2023-05-07T14:35:01;100407.22;;;24.58
19568;BMP280;9930;49.240;8.548;2023-05-07T14:37:27;100420.56;;;24.43
19568;BMP280;9930;49.240;8.548;2023-05-07T14:39:53;100414.88;;;24.19